Saturday, July 21, 2018, 8:35 PM EDT
Back to Local

KTTN, Trenton Mercer County Airport

Location: Trenton, NJ, United States Lat: 40.283
Local Time: 8:35 PM EDT ( 0:35 GMT) Lon: -74.817
Time Zone: US/Eastern Elev: 213 ft

Show me the last for .
Show Decoded

2018-07-21 20:20 METAR KTTN 220020Z 05015KT 3SM -RA BR OVC010 18/17 A2989 RMK AO2 CIG 005V013
                 P0003 T01830172 =
2018-07-21 19:53 METAR KTTN 212353Z 06015G24KT 2 1/2SM RA BR OVC010 19/18 A2990 RMK AO2 PK WND
                 05027/2337 SLP117 P0004 60047 T01890178 10233 20189 57025 =
2018-07-21 19:34 METAR KTTN 212334Z 05017KT 6SM -RA BR BKN010 OVC015 19/18 A2990 RMK AO2 CIG
                 007V013 P0002 T01890178 =
2018-07-21 19:12 METAR KTTN 212312Z 05017G22KT 3SM RA BR BKN008 BKN015 OVC044 19/18 A2991 RMK AO2
                 P0001 T01890178 =
2018-07-21 18:53 METAR KTTN 212253Z 05014G20KT 3SM RA BR FEW008 BKN043 OVC050 19/18 A2992 RMK AO2
                 SLP124 P0011 T01940183 =
2018-07-21 18:24 METAR KTTN 212224Z 05010KT 4SM RA BR BKN042 OVC050 19/18 A2993 RMK AO2 P0008
                 T01890178 =
2018-07-21 18:05 METAR KTTN 212205Z 06010KT 2SM +RA BR BKN048 OVC070 19/18 A2995 RMK AO2 P0004
                 T01940183 =
2018-07-21 17:53 METAR KTTN 212153Z 06011KT 3SM RA BR BKN060 OVC075 19/18 A2995 RMK AO2 SLP135
                 P0027 T01940178 =
2018-07-21 17:40 METAR KTTN 212140Z 06010KT 2 1/2SM +RA BR SCT050 OVC060 19/18 A2996 RMK AO2
                 P0024 T01940178 =
2018-07-21 17:21 METAR KTTN 212121Z 07011KT 1 3/4SM +RA BR BKN042 OVC060 19/18 A2997 RMK AO2
                 P0013 T01940178 =
2018-07-21 17:14 METAR KTTN 212114Z 07009KT 2SM +RA BR FEW038 BKN045 OVC060 19/18 A2996 RMK AO2
                 P0009 T01940178 =
2018-07-21 16:53 METAR KTTN 212053Z 08007KT 6SM RA FEW026 BKN055 OVC095 20/17 A2997 RMK AO2 RAB00
                 SLP142 P0005 60005 T02000172 56015 =
2018-07-21 15:53 METAR KTTN 211953Z 08011KT 10SM OVC060 22/16 A2997 RMK AO2 RAB1859E09 SLP142
                 P0000 T02170161 =
2018-07-21 14:53 METAR KTTN 211853Z 08012G20KT 10SM FEW031 OVC060 23/16 A3000 RMK AO2 SLP150
                 T02280156 =
2018-07-21 13:53 METAR KTTN 211753Z 10011KT 10SM SCT032 OVC075 23/16 A3001 RMK AO2 RAB16E25
                 SLP157 P0000 60000 T02330156 10250 20200 56014 =
2018-07-21 12:53 METAR KTTN 211653Z 09012KT 10SM FEW034 SCT080 25/17 A3002 RMK AO2 SLP158
                 T02500167 =
2018-07-21 11:53 METAR KTTN 211553Z 10012KT 10SM CLR 24/16 A3005 RMK AO2 SLP168 T02440161 =
2018-07-21 10:53 METAR KTTN 211453Z 10008KT 10SM CLR 23/15 A3006 RMK AO2 SLP171 T02280150 55001 =
2018-07-21 09:53 METAR KTTN 211353Z 10009KT 10SM FEW110 23/16 A3005 RMK AO2 SLP170 T02330161 =
2018-07-21 08:53 METAR KTTN 211253Z 10009KT 10SM CLR 22/16 A3005 RMK AO2 SLP169 T02170161 =
2018-07-21 07:53 METAR KTTN 211153Z 09005KT 10SM CLR 20/16 A3006 RMK AO2 SLP171 T02000156 10200
                 20167 55002 =
2018-07-21 06:53 METAR KTTN 211053Z 08005KT 10SM CLR 18/16 A3006 RMK AO2 SLP171 T01830156 =
2018-07-21 05:53 METAR KTTN 210953Z 06005KT 10SM BKN033 17/15 A3006 RMK AO2 SLP171 T01670150 =
2018-07-21 04:53 METAR KTTN 210853Z AUTO 07005KT 10SM CLR 17/15 A3006 RMK AO2 SLP174 T01720150
                 58007 =
2018-07-21 03:53 METAR KTTN 210753Z AUTO 05003KT 10SM SCT034 18/16 A3007 RMK AO2 SLP177 T01780156
                 =
2018-07-21 02:53 METAR KTTN 210653Z AUTO 06004KT 10SM CLR 17/15 A3008 RMK AO2 SLP180 T01720150 =
2018-07-21 01:53 METAR KTTN 210553Z AUTO 00000KT 10SM CLR 19/16 A3008 RMK AO2 SLP181 T01890156
                 10239 20178 56009 =
2018-07-21 00:53 METAR KTTN 210453Z AUTO 09003KT 10SM CLR 18/16 A3009 RMK AO2 SLP183 T01830156
                 402830172 =
2018-07-20 23:53 METAR KTTN 210353Z AUTO 09004KT 10SM CLR 19/16 A3010 RMK AO2 SLP185 T01940156 =
2018-07-20 22:53 METAR KTTN 210253Z AUTO 12005KT 10SM CLR 20/16 A3011 RMK AO2 SLP190 T02000156
                 50006 =
2018-07-20 21:53 METAR KTTN 210153Z 13006KT 10SM CLR 22/16 A3012 RMK AO2 SLP191 T02170156 =
2018-07-20 20:53 METAR KTTN 210053Z 14009KT 10SM CLR 23/16 A3010 RMK AO2 SLP185 T02280156 =

Support USWX by starting your Amazon purchase here.